sensor_id;sensor_type;location;lat;lon;timestamp;pressure;altitude;pressure_sealevel;temperature;humidity
80558;BME280;69901;43.524;-5.636;2023-11-21T00:01:57;102582.94;;;13.15;78.27
80558;BME280;69901;43.524;-5.636;2023-11-21T00:04:23;102570.00;;;12.77;78.65
80558;BME280;69901;43.524;-5.636;2023-11-21T00:06:49;102572.25;;;12.94;78.20
80558;BME280;69901;43.524;-5.636;2023-11-21T00:09:15;102585.25;;;12.98;78.07
80558;BME280;69901;43.524;-5.636;2023-11-21T00:11:44;102580.28;;;12.89;77.76
80558;BME280;69901;43.524;-5.636;2023-11-21T00:14:13;102573.75;;;12.83;78.86
80558;BME280;69901;43.524;-5.636;2023-11-21T00:16:41;102579.84;;;12.92;77.98
80558;BME280;69901;43.524;-5.636;2023-11-21T00:19:06;102578.97;;;12.98;77.46
80558;BME280;69901;43.524;-5.636;2023-11-21T00:21:32;102586.56;;;12.96;77.19
80558;BME280;69901;43.524;-5.636;2023-11-21T00:23:57;102576.25;;;12.91;77.52
80558;BME280;69901;43.524;-5.636;2023-11-21T00:26:23;102582.50;;;12.41;78.91
80558;BME280;69901;43.524;-5.636;2023-11-21T00:28:50;102582.72;;;12.06;79.42
80558;BME280;69901;43.524;-5.636;2023-11-21T00:31:16;102577.47;;;11.92;80.19
80558;BME280;69901;43.524;-5.636;2023-11-21T00:33:41;102563.22;;;11.83;80.79
80558;BME280;69901;43.524;-5.636;2023-11-21T00:36:08;102563.44;;;11.88;80.58
80558;BME280;69901;43.524;-5.636;2023-11-21T00:38:35;102570.75;;;11.88;81.18
80558;BME280;69901;43.524;-5.636;2023-11-21T00:41:01;102569.03;;;11.67;82.31
80558;BME280;69901;43.524;-5.636;2023-11-21T00:43:28;102579.75;;;11.68;82.17
80558;BME280;69901;43.524;-5.636;2023-11-21T00:45:53;102577.41;;;11.52;83.08
80558;BME280;69901;43.524;-5.636;2023-11-21T00:48:19;102572.88;;;11.72;83.29
80558;BME280;69901;43.524;-5.636;2023-11-21T00:50:44;102567.44;;;12.05;81.40
80558;BME280;69901;43.524;-5.636;2023-11-21T00:53:10;102577.47;;;12.24;81.02
80558;BME280;69901;43.524;-5.636;2023-11-21T00:55:37;102566.56;;;12.31;79.57
80558;BME280;69901;43.524;-5.636;2023-11-21T00:58:05;102575.56;;;12.32;79.11
80558;BME280;69901;43.524;-5.636;2023-11-21T01:00:32;102567.38;;;12.45;79.65
80558;BME280;69901;43.524;-5.636;2023-11-21T01:02:58;102581.19;;;12.63;79.19
80558;BME280;69901;43.524;-5.636;2023-11-21T01:05:23;102585.38;;;12.65;79.17
80558;BME280;69901;43.524;-5.636;2023-11-21T01:07:49;102577.81;;;12.74;80.40
80558;BME280;69901;43.524;-5.636;2023-11-21T01:10:15;102559.09;;;12.64;80.18
80558;BME280;69901;43.524;-5.636;2023-11-21T01:12:42;102572.38;;;12.67;80.35
80558;BME280;69901;43.524;-5.636;2023-11-21T01:15:08;102565.63;;;12.57;80.01
80558;BME280;69901;43.524;-5.636;2023-11-21T01:17:34;102565.66;;;12.63;80.31
80558;BME280;69901;43.524;-5.636;2023-11-21T01:20:01;102566.03;;;12.73;79.51
80558;BME280;69901;43.524;-5.636;2023-11-21T01:22:28;102575.66;;;12.83;79.16
80558;BME280;69901;43.524;-5.636;2023-11-21T01:24:54;102562.63;;;12.85;78.64
80558;BME280;69901;43.524;-5.636;2023-11-21T01:27:20;102569.50;;;12.94;77.61
80558;BME280;69901;43.524;-5.636;2023-11-21T01:29:45;102564.84;;;13.01;77.43
80558;BME280;69901;43.524;-5.636;2023-11-21T01:32:11;102577.47;;;13.15;76.77
80558;BME280;69901;43.524;-5.636;2023-11-21T01:34:37;102573.47;;;12.40;77.24
80558;BME280;69901;43.524;-5.636;2023-11-21T01:37:02;102595.28;;;12.53;79.73
80558;BME280;69901;43.524;-5.636;2023-11-21T01:39:30;102578.13;;;12.20;79.11
80558;BME280;69901;43.524;-5.636;2023-11-21T01:41:55;102584.84;;;12.31;84.35
80558;BME280;69901;43.524;-5.636;2023-11-21T01:44:24;102583.13;;;12.36;83.98
80558;BME280;69901;43.524;-5.636;2023-11-21T01:46:50;102577.66;;;12.43;84.03
80558;BME280;69901;43.524;-5.636;2023-11-21T01:49:16;102577.88;;;12.41;84.60
80558;BME280;69901;43.524;-5.636;2023-11-21T01:51:44;102582.06;;;12.44;85.03
80558;BME280;69901;43.524;-5.636;2023-11-21T01:54:11;102573.25;;;12.42;83.97
80558;BME280;69901;43.524;-5.636;2023-11-21T01:56:37;102567.56;;;12.43;85.06
80558;BME280;69901;43.524;-5.636;2023-11-21T01:59:03;102573.69;;;12.45;84.45
80558;BME280;69901;43.524;-5.636;2023-11-21T02:01:28;102579.56;;;12.36;84.07
80558;BME280;69901;43.524;-5.636;2023-11-21T02:03:54;102567.56;;;12.43;84.08
80558;BME280;69901;43.524;-5.636;2023-11-21T02:06:22;102569.25;;;12.51;83.15
80558;BME280;69901;43.524;-5.636;2023-11-21T02:08:47;102564.00;;;12.43;82.29
80558;BME280;69901;43.524;-5.636;2023-11-21T02:11:14;102561.50;;;12.35;82.32
80558;BME280;69901;43.524;-5.636;2023-11-21T02:13:39;102561.72;;;12.33;82.21
80558;BME280;69901;43.524;-5.636;2023-11-21T02:16:10;102561.25;;;12.43;81.81
80558;BME280;69901;43.524;-5.636;2023-11-21T02:18:38;102561.47;;;12.48;81.24
80558;BME280;69901;43.524;-5.636;2023-11-21T02:21:04;102583.53;;;12.46;80.93
80558;BME280;69901;43.524;-5.636;2023-11-21T02:23:30;102607.50;;;11.85;82.89
80558;BME280;69901;43.524;-5.636;2023-11-21T02:25:55;102610.00;;;11.06;88.96
80558;BME280;69901;43.524;-5.636;2023-11-21T02:28:21;102610.34;;;10.90;92.47
80558;BME280;69901;43.524;-5.636;2023-11-21T02:30:51;102598.72;;;11.22;96.24
80558;BME280;69901;43.524;-5.636;2023-11-21T02:33:21;102595.03;;;11.43;97.37
80558;BME280;69901;43.524;-5.636;2023-11-21T02:35:47;102598.44;;;11.58;98.48
80558;BME280;69901;43.524;-5.636;2023-11-21T02:38:13;102601.13;;;11.52;96.32
80558;BME280;69901;43.524;-5.636;2023-11-21T02:40:39;102595.91;;;11.57;96.84
80558;BME280;69901;43.524;-5.636;2023-11-21T02:43:04;102593.16;;;11.63;96.45
80558;BME280;69901;43.524;-5.636;2023-11-21T02:45:31;102588.13;;;11.54;94.33
80558;BME280;69901;43.524;-5.636;2023-11-21T02:47:57;102587.06;;;11.55;94.48
80558;BME280;69901;43.524;-5.636;2023-11-21T02:50:23;102594.84;;;11.58;94.05
80558;BME280;69901;43.524;-5.636;2023-11-21T02:52:50;102607.06;;;11.75;94.44
80558;BME280;69901;43.524;-5.636;2023-11-21T02:55:15;102607.84;;;11.56;93.40
80558;BME280;69901;43.524;-5.636;2023-11-21T02:57:41;102602.44;;;11.69;92.96
80558;BME280;69901;43.524;-5.636;2023-11-21T03:00:07;102598.81;;;11.49;92.90
80558;BME280;69901;43.524;-5.636;2023-11-21T03:02:33;102599.50;;;11.77;94.06
80558;BME280;69901;43.524;-5.636;2023-11-21T03:05:02;102580.44;;;11.84;91.62
80558;BME280;69901;43.524;-5.636;2023-11-21T03:07:28;102575.81;;;11.77;89.99
80558;BME280;69901;43.524;-5.636;2023-11-21T03:09:53;102567.84;;;11.83;91.24
80558;BME280;69901;43.524;-5.636;2023-11-21T03:12:19;102585.06;;;11.96;90.08
80558;BME280;69901;43.524;-5.636;2023-11-21T03:14:44;102573.09;;;11.97;89.92
80558;BME280;69901;43.524;-5.636;2023-11-21T03:17:10;102589.69;;;12.09;89.17
80558;BME280;69901;43.524;-5.636;2023-11-21T03:19:36;102585.47;;;12.00;88.22
80558;BME280;69901;43.524;-5.636;2023-11-21T03:22:02;102575.63;;;12.05;87.66
80558;BME280;69901;43.524;-5.636;2023-11-21T03:24:29;102576.44;;;12.06;89.21
80558;BME280;69901;43.524;-5.636;2023-11-21T03:26:54;102578.56;;;11.97;89.21
80558;BME280;69901;43.524;-5.636;2023-11-21T03:29:20;102568.47;;;11.98;90.33
80558;BME280;69901;43.524;-5.636;2023-11-21T03:31:46;102568.06;;;11.94;90.20
80558;BME280;69901;43.524;-5.636;2023-11-21T03:34:23;102556.31;;;11.94;89.05
80558;BME280;69901;43.524;-5.636;2023-11-21T03:36:49;102551.69;;;11.94;87.60
80558;BME280;69901;43.524;-5.636;2023-11-21T03:39:14;102555.47;;;11.93;86.68
80558;BME280;69901;43.524;-5.636;2023-11-21T03:41:39;102541.59;;;12.01;86.46
80558;BME280;69901;43.524;-5.636;2023-11-21T03:44:05;102551.03;;;11.99;85.54
80558;BME280;69901;43.524;-5.636;2023-11-21T03:46:30;102566.38;;;12.00;86.33
80558;BME280;69901;43.524;-5.636;2023-11-21T03:48:56;102566.59;;;11.72;85.27
80558;BME280;69901;43.524;-5.636;2023-11-21T03:51:21;102573.31;;;11.09;87.20
80558;BME280;69901;43.524;-5.636;2023-11-21T03:53:47;102563.25;;;11.03;88.48
80558;BME280;69901;43.524;-5.636;2023-11-21T03:56:13;102552.97;;;11.05;89.82
80558;BME280;69901;43.524;-5.636;2023-11-21T03:58:39;102564.63;;;11.53;88.84
80558;BME280;69901;43.524;-5.636;2023-11-21T04:01:06;102554.16;;;11.63;87.60
80558;BME280;69901;43.524;-5.636;2023-11-21T04:03:31;102551.94;;;11.12;87.42
80558;BME280;69901;43.524;-5.636;2023-11-21T04:05:56;102560.81;;;11.34;90.01
80558;BME280;69901;43.524;-5.636;2023-11-21T04:08:22;102551.38;;;11.37;86.92
80558;BME280;69901;43.524;-5.636;2023-11-21T04:10:47;102551.41;;;11.43;87.46
80558;BME280;69901;43.524;-5.636;2023-11-21T04:13:13;102544.28;;;11.55;87.17
80558;BME280;69901;43.524;-5.636;2023-11-21T04:15:39;102536.75;;;11.57;86.91
80558;BME280;69901;43.524;-5.636;2023-11-21T04:18:04;102562.38;;;11.76;86.82
80558;BME280;69901;43.524;-5.636;2023-11-21T04:20:30;102558.13;;;11.60;85.13
80558;BME280;69901;43.524;-5.636;2023-11-21T04:22:55;102561.13;;;11.72;85.23
80558;BME280;69901;43.524;-5.636;2023-11-21T04:25:21;102566.75;;;11.57;83.91
80558;BME280;69901;43.524;-5.636;2023-11-21T04:27:48;102559.38;;;11.45;85.74
80558;BME280;69901;43.524;-5.636;2023-11-21T04:30:14;102542.44;;;11.82;85.29
80558;BME280;69901;43.524;-5.636;2023-11-21T04:32:40;102564.50;;;11.87;83.83
80558;BME280;69901;43.524;-5.636;2023-11-21T04:35:06;102568.03;;;11.88;84.49
80558;BME280;69901;43.524;-5.636;2023-11-21T04:37:31;102573.28;;;11.89;84.14
80558;BME280;69901;43.524;-5.636;2023-11-21T04:39:57;102585.06;;;11.96;83.71
80558;BME280;69901;43.524;-5.636;2023-11-21T04:42:22;102593.44;;;12.08;82.99
80558;BME280;69901;43.524;-5.636;2023-11-21T04:44:48;102608.75;;;12.02;80.99
80558;BME280;69901;43.524;-5.636;2023-11-21T04:47:14;102618.06;;;11.41;87.15
80558;BME280;69901;43.524;-5.636;2023-11-21T04:49:42;102599.13;;;11.19;87.74
80558;BME280;69901;43.524;-5.636;2023-11-21T04:52:08;102608.59;;;10.76;89.00
80558;BME280;69901;43.524;-5.636;2023-11-21T04:54:35;102611.81;;;10.52;90.14
80558;BME280;69901;43.524;-5.636;2023-11-21T04:57:00;102605.84;;;10.69;91.84
80558;BME280;69901;43.524;-5.636;2023-11-21T04:59:26;102614.03;;;10.76;92.78
80558;BME280;69901;43.524;-5.636;2023-11-21T05:01:53;102618.34;;;10.64;93.89
80558;BME280;69901;43.524;-5.636;2023-11-21T05:04:19;102634.09;;;11.03;95.79
80558;BME280;69901;43.524;-5.636;2023-11-21T05:06:45;102636.84;;;11.09;95.06
80558;BME280;69901;43.524;-5.636;2023-11-21T05:09:11;102619.31;;;11.31;95.91
80558;BME280;69901;43.524;-5.636;2023-11-21T05:11:37;102613.69;;;11.46;96.12
80558;BME280;69901;43.524;-5.636;2023-11-21T05:14:04;102612.25;;;11.57;96.35
80558;BME280;69901;43.524;-5.636;2023-11-21T05:16:30;102610.38;;;11.70;96.78
80558;BME280;69901;43.524;-5.636;2023-11-21T05:18:56;102614.00;;;11.77;95.52
80558;BME280;69901;43.524;-5.636;2023-11-21T05:21:26;102615.69;;;11.92;95.98
80558;BME280;69901;43.524;-5.636;2023-11-21T05:23:51;102608.38;;;12.05;96.58
80558;BME280;69901;43.524;-5.636;2023-11-21T05:26:17;102602.47;;;12.15;96.27
80558;BME280;69901;43.524;-5.636;2023-11-21T05:28:43;102602.69;;;12.20;96.56
80558;BME280;69901;43.524;-5.636;2023-11-21T05:31:08;102593.25;;;12.16;96.16
80558;BME280;69901;43.524;-5.636;2023-11-21T05:33:33;102584.19;;;12.02;93.18
80558;BME280;69901;43.524;-5.636;2023-11-21T05:35:59;102593.88;;;11.98;93.97
80558;BME280;69901;43.524;-5.636;2023-11-21T05:38:25;102599.31;;;11.78;89.50
80558;BME280;69901;43.524;-5.636;2023-11-21T05:40:51;102582.00;;;11.39;89.72
80558;BME280;69901;43.524;-5.636;2023-11-21T05:43:16;102589.75;;;11.35;90.59
80558;BME280;69901;43.524;-5.636;2023-11-21T05:45:42;102582.25;;;11.44;91.04
80558;BME280;69901;43.524;-5.636;2023-11-21T05:48:07;102601.28;;;11.37;89.85
80558;BME280;69901;43.524;-5.636;2023-11-21T05:50:33;102605.91;;;11.37;91.63
80558;BME280;69901;43.524;-5.636;2023-11-21T05:52:58;102605.53;;;11.53;91.11
80558;BME280;69901;43.524;-5.636;2023-11-21T05:55:25;102601.28;;;11.37;90.74
80558;BME280;69901;43.524;-5.636;2023-11-21T05:57:51;102601.97;;;11.59;91.60
80558;BME280;69901;43.524;-5.636;2023-11-21T06:00:17;102597.00;;;11.75;91.35
80558;BME280;69901;43.524;-5.636;2023-11-21T06:02:50;102599.31;;;11.85;91.98
80558;BME280;69901;43.524;-5.636;2023-11-21T06:05:17;102596.38;;;11.93;90.98
80558;BME280;69901;43.524;-5.636;2023-11-21T06:07:44;102598.44;;;11.58;88.54
80558;BME280;69901;43.524;-5.636;2023-11-21T06:10:10;102604.59;;;11.26;87.33
80558;BME280;69901;43.524;-5.636;2023-11-21T06:12:38;102622.44;;;11.22;87.49
80558;BME280;69901;43.524;-5.636;2023-11-21T06:15:05;102613.75;;;10.99;89.50
80558;BME280;69901;43.524;-5.636;2023-11-21T06:17:34;102612.00;;;11.39;89.60
80558;BME280;69901;43.524;-5.636;2023-11-21T06:20:21;102617.53;;;11.65;88.09
80558;BME280;69901;43.524;-5.636;2023-11-21T06:22:50;102613.94;;;11.58;85.31
80558;BME280;69901;43.524;-5.636;2023-11-21T06:25:15;102604.91;;;11.57;87.01
80558;BME280;69901;43.524;-5.636;2023-11-21T06:27:45;102609.94;;;11.54;85.26
80558;BME280;69901;43.524;-5.636;2023-11-21T06:30:12;102607.81;;;11.36;85.19
80558;BME280;69901;43.524;-5.636;2023-11-21T06:32:39;102613.09;;;11.51;86.20
80558;BME280;69901;43.524;-5.636;2023-11-21T06:35:06;102616.00;;;11.36;85.95
80558;BME280;69901;43.524;-5.636;2023-11-21T06:37:32;102618.53;;;11.51;85.10
80558;BME280;69901;43.524;-5.636;2023-11-21T06:39:58;102612.25;;;11.63;83.55
80558;BME280;69901;43.524;-5.636;2023-11-21T06:42:25;102626.41;;;11.80;84.76
80558;BME280;69901;43.524;-5.636;2023-11-21T06:44:51;102626.41;;;11.87;83.74
80558;BME280;69901;43.524;-5.636;2023-11-21T06:47:20;102624.09;;;12.03;84.07
80558;BME280;69901;43.524;-5.636;2023-11-21T06:49:45;102621.16;;;12.11;83.26
80558;BME280;69901;43.524;-5.636;2023-11-21T06:52:13;102624.28;;;11.95;83.11
80558;BME280;69901;43.524;-5.636;2023-11-21T06:54:39;102621.09;;;11.65;82.57
80558;BME280;69901;43.524;-5.636;2023-11-21T06:57:05;102637.59;;;11.44;83.57
80558;BME280;69901;43.524;-5.636;2023-11-21T06:59:30;102626.22;;;11.21;85.16
80558;BME280;69901;43.524;-5.636;2023-11-21T07:01:55;102627.16;;;11.54;84.29
80558;BME280;69901;43.524;-5.636;2023-11-21T07:04:21;102627.44;;;11.72;82.89
80558;BME280;69901;43.524;-5.636;2023-11-21T07:06:46;102636.06;;;11.89;83.30
80558;BME280;69901;43.524;-5.636;2023-11-21T07:09:12;102637.50;;;11.78;82.50
80558;BME280;69901;43.524;-5.636;2023-11-21T07:11:38;102633.75;;;11.99;83.14
80558;BME280;69901;43.524;-5.636;2023-11-21T07:14:04;102630.59;;;12.02;82.11
80558;BME280;69901;43.524;-5.636;2023-11-21T07:16:36;102647.38;;;11.93;81.28
80558;BME280;69901;43.524;-5.636;2023-11-21T07:19:06;102645.25;;;11.75;81.61
80558;BME280;69901;43.524;-5.636;2023-11-21T07:21:33;102661.66;;;11.88;83.21
80558;BME280;69901;43.524;-5.636;2023-11-21T07:24:00;102667.22;;;11.60;82.33
80558;BME280;69901;43.524;-5.636;2023-11-21T07:26:26;102670.16;;;11.59;81.50
80558;BME280;69901;43.524;-5.636;2023-11-21T07:28:52;102665.94;;;11.43;80.50
80558;BME280;69901;43.524;-5.636;2023-11-21T07:31:18;102655.38;;;11.33;79.57
80558;BME280;69901;43.524;-5.636;2023-11-21T07:33:45;102656.22;;;11.27;79.95
80558;BME280;69901;43.524;-5.636;2023-11-21T07:36:12;102652.22;;;11.30;78.98
80558;BME280;69901;43.524;-5.636;2023-11-21T07:38:38;102664.66;;;11.39;78.84
80558;BME280;69901;43.524;-5.636;2023-11-21T07:41:04;102661.53;;;11.49;76.00
80558;BME280;69901;43.524;-5.636;2023-11-21T07:43:37;102684.91;;;11.23;79.67
80558;BME280;69901;43.524;-5.636;2023-11-21T07:46:03;102683.00;;;10.83;79.00
80558;BME280;69901;43.524;-5.636;2023-11-21T07:48:30;102684.50;;;10.58;90.65
80558;BME280;69901;43.524;-5.636;2023-11-21T07:50:56;102687.34;;;10.71;90.22
80558;BME280;69901;43.524;-5.636;2023-11-21T07:53:24;102679.00;;;10.79;88.75
80558;BME280;69901;43.524;-5.636;2023-11-21T07:55:51;102677.94;;;10.73;84.76
80558;BME280;69901;43.524;-5.636;2023-11-21T07:58:17;102680.28;;;10.83;83.32
80558;BME280;69901;43.524;-5.636;2023-11-21T08:00:43;102675.53;;;10.92;86.30
80558;BME280;69901;43.524;-5.636;2023-11-21T08:03:09;102689.91;;;11.13;88.72
80558;BME280;69901;43.524;-5.636;2023-11-21T08:05:35;102687.66;;;11.30;91.68
80558;BME280;69901;43.524;-5.636;2023-11-21T08:08:00;102691.09;;;11.45;91.91
80558;BME280;69901;43.524;-5.636;2023-11-21T08:10:26;102697.06;;;11.68;92.68
80558;BME280;69901;43.524;-5.636;2023-11-21T08:12:51;102682.84;;;11.86;90.75
80558;BME280;69901;43.524;-5.636;2023-11-21T08:15:17;102681.59;;;11.89;88.70
80558;BME280;69901;43.524;-5.636;2023-11-21T08:17:43;102715.00;;;11.91;86.92
80558;BME280;69901;43.524;-5.636;2023-11-21T08:20:09;102709.41;;;11.64;85.20
80558;BME280;69901;43.524;-5.636;2023-11-21T08:22:36;102709.84;;;11.68;84.14
80558;BME280;69901;43.524;-5.636;2023-11-21T08:25:02;102706.56;;;11.79;85.45
80558;BME280;69901;43.524;-5.636;2023-11-21T08:27:29;102704.25;;;11.76;84.29
80558;BME280;69901;43.524;-5.636;2023-11-21T08:29:55;102713.91;;;11.92;85.87
80558;BME280;69901;43.524;-5.636;2023-11-21T08:32:22;102709.97;;;12.01;84.56
80558;BME280;69901;43.524;-5.636;2023-11-21T08:34:47;102714.75;;;11.92;84.91
80558;BME280;69901;43.524;-5.636;2023-11-21T08:37:16;102716.09;;;12.16;85.16
80558;BME280;69901;43.524;-5.636;2023-11-21T08:39:44;102722.00;;;12.46;85.19
80558;BME280;69901;43.524;-5.636;2023-11-21T08:42:09;102716.97;;;12.49;83.06
80558;BME280;69901;43.524;-5.636;2023-11-21T08:44:35;102710.19;;;12.71;80.71
80558;BME280;69901;43.524;-5.636;2023-11-21T08:47:00;102701.34;;;12.83;81.54
80558;BME280;69901;43.524;-5.636;2023-11-21T08:49:29;102711.88;;;12.86;81.81
80558;BME280;69901;43.524;-5.636;2023-11-21T08:52:00;102721.06;;;13.04;80.31
80558;BME280;69901;43.524;-5.636;2023-11-21T08:54:26;102720.44;;;13.15;81.51
80558;BME280;69901;43.524;-5.636;2023-11-21T08:56:54;102716.22;;;13.26;79.94
80558;BME280;69901;43.524;-5.636;2023-11-21T08:59:20;102721.81;;;13.44;79.18
80558;BME280;69901;43.524;-5.636;2023-11-21T09:01:47;102715.63;;;13.68;78.78
80558;BME280;69901;43.524;-5.636;2023-11-21T09:04:12;102709.13;;;14.01;78.38
80558;BME280;69901;43.524;-5.636;2023-11-21T09:06:39;102719.81;;;14.09;78.47
80558;BME280;69901;43.524;-5.636;2023-11-21T09:09:05;102731.00;;;14.07;79.35
80558;BME280;69901;43.524;-5.636;2023-11-21T09:11:34;102746.47;;;13.89;75.16
80558;BME280;69901;43.524;-5.636;2023-11-21T09:14:01;102763.59;;;13.13;82.30
80558;BME280;69901;43.524;-5.636;2023-11-21T09:16:26;102758.97;;;12.55;88.73
80558;BME280;69901;43.524;-5.636;2023-11-21T09:18:52;102763.16;;;13.10;92.78
80558;BME280;69901;43.524;-5.636;2023-11-21T09:21:18;102761.78;;;13.52;95.12
80558;BME280;69901;43.524;-5.636;2023-11-21T09:23:47;102758.63;;;13.55;93.48
80558;BME280;69901;43.524;-5.636;2023-11-21T09:26:13;102767.16;;;13.78;94.22
80558;BME280;69901;43.524;-5.636;2023-11-21T09:28:41;102771.78;;;13.77;92.64
80558;BME280;69901;43.524;-5.636;2023-11-21T09:31:11;102775.34;;;13.85;94.44
80558;BME280;69901;43.524;-5.636;2023-11-21T09:33:37;102776.53;;;14.02;96.13
80558;BME280;69901;43.524;-5.636;2023-11-21T09:36:04;102779.38;;;14.13;91.93
80558;BME280;69901;43.524;-5.636;2023-11-21T09:38:30;102773.97;;;14.45;92.13
80558;BME280;69901;43.524;-5.636;2023-11-21T09:40:56;102771.56;;;14.55;88.79
80558;BME280;69901;43.524;-5.636;2023-11-21T09:43:24;102769.34;;;14.45;86.67
80558;BME280;69901;43.524;-5.636;2023-11-21T09:45:59;102768.63;;;14.56;86.23
80558;BME280;69901;43.524;-5.636;2023-11-21T09:48:26;102773.53;;;14.72;87.91
80558;BME280;69901;43.524;-5.636;2023-11-21T09:50:53;102764.31;;;14.67;84.79
80558;BME280;69901;43.524;-5.636;2023-11-21T09:53:22;102773.19;;;14.62;83.07
80558;BME280;69901;43.524;-5.636;2023-11-21T09:55:51;102770.84;;;14.66;83.23
80558;BME280;69901;43.524;-5.636;2023-11-21T09:58:19;102763.50;;;15.09;83.81
80558;BME280;69901;43.524;-5.636;2023-11-21T10:00:49;102755.38;;;15.39;79.43
80558;BME280;69901;43.524;-5.636;2023-11-21T10:03:18;102762.84;;;14.89;78.76
80558;BME280;69901;43.524;-5.636;2023-11-21T10:05:44;102767.47;;;14.01;79.33
80558;BME280;69901;43.524;-5.636;2023-11-21T10:08:11;102775.75;;;13.24;79.92
80558;BME280;69901;43.524;-5.636;2023-11-21T10:10:38;102795.97;;;12.77;82.16
80558;BME280;69901;43.524;-5.636;2023-11-21T10:13:11;102785.22;;;12.69;81.73
80558;BME280;69901;43.524;-5.636;2023-11-21T10:15:37;102772.56;;;13.40;81.50
80558;BME280;69901;43.524;-5.636;2023-11-21T10:18:04;102777.94;;;13.73;79.90
80558;BME280;69901;43.524;-5.636;2023-11-21T10:20:33;102775.28;;;13.98;80.56
80558;BME280;69901;43.524;-5.636;2023-11-21T10:23:00;102777.78;;;14.68;80.49
80558;BME280;69901;43.524;-5.636;2023-11-21T10:25:31;102766.47;;;14.83;78.37
80558;BME280;69901;43.524;-5.636;2023-11-21T10:27:58;102758.44;;;14.88;79.93
80558;BME280;69901;43.524;-5.636;2023-11-21T10:30:37;102765.03;;;14.81;81.26
80558;BME280;69901;43.524;-5.636;2023-11-21T10:33:04;102760.72;;;14.66;78.46
80558;BME280;69901;43.524;-5.636;2023-11-21T10:35:45;102768.78;;;14.86;78.28
80558;BME280;69901;43.524;-5.636;2023-11-21T10:38:13;102778.09;;;14.54;73.67
80558;BME280;69901;43.524;-5.636;2023-11-21T10:40:40;102778.16;;;14.72;74.34
80558;BME280;69901;43.524;-5.636;2023-11-21T10:43:07;102782.94;;;14.83;72.72
80558;BME280;69901;43.524;-5.636;2023-11-21T10:45:39;102776.72;;;14.69;71.03
80558;BME280;69901;43.524;-5.636;2023-11-21T10:48:06;102777.81;;;14.37;71.11
80558;BME280;69901;43.524;-5.636;2023-11-21T10:50:34;102775.94;;;14.31;68.65
80558;BME280;69901;43.524;-5.636;2023-11-21T10:53:04;102779.38;;;14.13;66.06
80558;BME280;69901;43.524;-5.636;2023-11-21T10:55:31;102780.56;;;14.31;66.14
80558;BME280;69901;43.524;-5.636;2023-11-21T10:58:02;102770.97;;;14.53;64.83
80558;BME280;69901;43.524;-5.636;2023-11-21T11:00:30;102772.34;;;14.87;64.60
80558;BME280;69901;43.524;-5.636;2023-11-21T11:02:57;102754.03;;;15.05;63.67
80558;BME280;69901;43.524;-5.636;2023-11-21T11:05:28;102750.69;;;15.03;63.48
80558;BME280;69901;43.524;-5.636;2023-11-21T11:08:08;102770.13;;;14.77;62.67
80558;BME280;69901;43.524;-5.636;2023-11-21T11:10:36;102771.91;;;14.65;63.62
80558;BME280;69901;43.524;-5.636;2023-11-21T11:13:03;102761.47;;;14.17;63.43
80558;BME280;69901;43.524;-5.636;2023-11-21T11:15:29;102750.19;;;14.01;64.58
80558;BME280;69901;43.524;-5.636;2023-11-21T11:17:55;102757.41;;;14.27;63.42
80558;BME280;69901;43.524;-5.636;2023-11-21T11:20:24;102754.91;;;13.87;62.96
80558;BME280;69901;43.524;-5.636;2023-11-21T11:28:17;102769.94;;;14.72;62.20
80558;BME280;69901;43.524;-5.636;2023-11-21T11:33:57;102741.44;;;15.23;59.29
80558;BME280;69901;43.524;-5.636;2023-11-21T11:38:52;102738.97;;;15.14;59.93
80558;BME280;69901;43.524;-5.636;2023-11-21T11:41:26;102736.38;;;15.38;60.58
80558;BME280;69901;43.524;-5.636;2023-11-21T11:43:54;102746.63;;;15.49;60.99
80558;BME280;69901;43.524;-5.636;2023-11-21T11:46:19;102734.34;;;15.33;59.57
80558;BME280;69901;43.524;-5.636;2023-11-21T11:48:48;102730.44;;;15.23;59.79
80558;BME280;69901;43.524;-5.636;2023-11-21T11:51:28;102732.25;;;15.10;59.63
80558;BME280;69901;43.524;-5.636;2023-11-21T11:53:54;102736.06;;;15.09;60.74
80558;BME280;69901;43.524;-5.636;2023-11-21T11:56:30;102737.97;;;14.66;61.16
80558;BME280;69901;43.524;-5.636;2023-11-21T11:58:59;102742.59;;;14.65;61.37
80558;BME280;69901;43.524;-5.636;2023-11-21T12:01:28;102746.63;;;14.63;61.04
80558;BME280;69901;43.524;-5.636;2023-11-21T12:06:59;102723.41;;;14.65;61.14
80558;BME280;69901;43.524;-5.636;2023-11-21T12:09:26;102728.56;;;14.55;60.69
80558;BME280;69901;43.524;-5.636;2023-11-21T12:11:53;102732.16;;;14.56;61.33
80558;BME280;69901;43.524;-5.636;2023-11-21T12:14:22;102734.09;;;14.73;62.11
80558;BME280;69901;43.524;-5.636;2023-11-21T12:16:47;102727.72;;;14.80;62.54
80558;BME280;69901;43.524;-5.636;2023-11-21T12:19:13;102723.13;;;15.16;62.25
80558;BME280;69901;43.524;-5.636;2023-11-21T12:21:39;102736.25;;;15.33;60.74
80558;BME280;69901;43.524;-5.636;2023-11-21T12:24:09;102738.81;;;15.09;61.38
80558;BME280;69901;43.524;-5.636;2023-11-21T12:26:35;102721.03;;;15.12;63.10
80558;BME280;69901;43.524;-5.636;2023-11-21T12:29:03;102731.00;;;14.88;64.83
80558;BME280;69901;43.524;-5.636;2023-11-21T12:31:30;102761.25;;;14.50;67.95
80558;BME280;69901;43.524;-5.636;2023-11-21T12:33:56;102752.97;;;13.94;68.73
80558;BME280;69901;43.524;-5.636;2023-11-21T12:36:22;102742.09;;;13.81;70.81
80558;BME280;69901;43.524;-5.636;2023-11-21T12:38:48;102744.09;;;13.61;72.66
80558;BME280;69901;43.524;-5.636;2023-11-21T12:41:16;102748.63;;;13.16;72.54
80558;BME280;69901;43.524;-5.636;2023-11-21T12:43:42;102745.78;;;13.55;72.62
80558;BME280;69901;43.524;-5.636;2023-11-21T12:46:10;102738.00;;;13.52;71.41
80558;BME280;69901;43.524;-5.636;2023-11-21T12:48:42;102737.16;;;13.52;70.26
80558;BME280;69901;43.524;-5.636;2023-11-21T12:51:09;102742.38;;;14.04;68.62
80558;BME280;69901;43.524;-5.636;2023-11-21T12:53:35;102744.13;;;14.30;68.36